sensor_id;sensor_type;location;lat;lon;timestamp;temperature;humidity
3300;DHT22;1662;49.310;8.134;2022-10-30T00:00:29;16.20;99.90
3300;DHT22;1662;49.310;8.134;2022-10-30T00:02:55;16.20;99.90
3300;DHT22;1662;49.310;8.134;2022-10-30T00:05:20;16.20;99.90
3300;DHT22;1662;49.310;8.134;2022-10-30T00:07:49;16.20;99.90
3300;DHT22;1662;49.310;8.134;2022-10-30T00:10:16;16.20;99.90
3300;DHT22;1662;49.310;8.134;2022-10-30T00:12:42;16.10;99.90
3300;DHT22;1662;49.310;8.134;2022-10-30T00:15:09;16.10;99.90
3300;DHT22;1662;49.310;8.134;2022-10-30T00:17:34;16.00;99.90
3300;DHT22;1662;49.310;8.134;2022-10-30T00:20:00;16.00;99.90
3300;DHT22;1662;49.310;8.134;2022-10-30T00:22:26;16.00;99.90
3300;DHT22;1662;49.310;8.134;2022-10-30T00:24:51;16.00;99.90
3300;DHT22;1662;49.310;8.134;2022-10-30T00:27:17;16.00;99.90
3300;DHT22;1662;49.310;8.134;2022-10-30T00:29:43;16.00;99.90
3300;DHT22;1662;49.310;8.134;2022-10-30T00:32:09;16.00;99.90
3300;DHT22;1662;49.310;8.134;2022-10-30T00:34:35;15.90;99.90
3300;DHT22;1662;49.310;8.134;2022-10-30T00:37:00;15.90;99.90
3300;DHT22;1662;49.310;8.134;2022-10-30T00:39:26;15.80;99.90
3300;DHT22;1662;49.310;8.134;2022-10-30T00:41:51;15.80;99.90
3300;DHT22;1662;49.310;8.134;2022-10-30T00:44:49;15.80;99.90
3300;DHT22;1662;49.310;8.134;2022-10-30T00:50:46;15.70;99.90
3300;DHT22;1662;49.310;8.134;2022-10-30T00:53:01;15.70;99.90
3300;DHT22;1662;49.310;8.134;2022-10-30T00:55:39;15.70;99.90
3300;DHT22;1662;49.310;8.134;2022-10-30T00:58:08;15.70;99.90
3300;DHT22;1662;49.310;8.134;2022-10-30T01:00:36;15.70;99.90
3300;DHT22;1662;49.310;8.134;2022-10-30T01:03:03;15.70;99.90
3300;DHT22;1662;49.310;8.134;2022-10-30T01:05:30;15.70;99.90
3300;DHT22;1662;49.310;8.134;2022-10-30T01:07:56;15.70;99.90
3300;DHT22;1662;49.310;8.134;2022-10-30T01:10:23;15.70;99.90
3300;DHT22;1662;49.310;8.134;2022-10-30T01:12:50;15.70;99.90
3300;DHT22;1662;49.310;8.134;2022-10-30T01:15:21;15.70;99.90
3300;DHT22;1662;49.310;8.134;2022-10-30T01:23:36;15.80;99.90
3300;DHT22;1662;49.310;8.134;2022-10-30T01:29:10;15.70;99.90
3300;DHT22;1662;49.310;8.134;2022-10-30T01:36:56;15.50;99.90
3300;DHT22;1662;49.310;8.134;2022-10-30T01:39:26;15.50;99.90
3300;DHT22;1662;49.310;8.134;2022-10-30T01:41:52;15.50;99.90
3300;DHT22;1662;49.310;8.134;2022-10-30T01:44:26;15.40;99.90
3300;DHT22;1662;49.310;8.134;2022-10-30T01:50:08;15.40;99.90
3300;DHT22;1662;49.310;8.134;2022-10-30T01:55:46;15.30;99.90
3300;DHT22;1662;49.310;8.134;2022-10-30T01:58:26;15.30;99.90
3300;DHT22;1662;49.310;8.134;2022-10-30T02:00:57;15.30;99.90
3300;DHT22;1662;49.310;8.134;2022-10-30T02:03:23;15.20;99.90
3300;DHT22;1662;49.310;8.134;2022-10-30T02:05:51;15.20;99.90
3300;DHT22;1662;49.310;8.134;2022-10-30T02:08:19;15.20;99.90
3300;DHT22;1662;49.310;8.134;2022-10-30T02:10:46;15.20;99.90
3300;DHT22;1662;49.310;8.134;2022-10-30T02:13:13;15.10;99.90
3300;DHT22;1662;49.310;8.134;2022-10-30T02:15:40;15.10;99.90
3300;DHT22;1662;49.310;8.134;2022-10-30T02:18:06;15.10;99.90
3300;DHT22;1662;49.310;8.134;2022-10-30T02:20:32;15.00;99.90
3300;DHT22;1662;49.310;8.134;2022-10-30T02:22:57;15.00;99.90
3300;DHT22;1662;49.310;8.134;2022-10-30T02:25:23;14.90;99.90
3300;DHT22;1662;49.310;8.134;2022-10-30T02:27:48;14.90;99.90
3300;DHT22;1662;49.310;8.134;2022-10-30T02:30:16;14.90;99.90
3300;DHT22;1662;49.310;8.134;2022-10-30T02:32:42;14.80;99.90
3300;DHT22;1662;49.310;8.134;2022-10-30T02:35:10;14.80;99.90
3300;DHT22;1662;49.310;8.134;2022-10-30T02:37:38;14.80;99.90
3300;DHT22;1662;49.310;8.134;2022-10-30T02:40:07;14.80;99.90
3300;DHT22;1662;49.310;8.134;2022-10-30T02:42:33;14.80;99.90
3300;DHT22;1662;49.310;8.134;2022-10-30T02:44:59;14.80;99.90
3300;DHT22;1662;49.310;8.134;2022-10-30T02:47:25;14.70;99.90
3300;DHT22;1662;49.310;8.134;2022-10-30T02:49:52;14.60;99.90
3300;DHT22;1662;49.310;8.134;2022-10-30T02:52:21;14.60;99.90
3300;DHT22;1662;49.310;8.134;2022-10-30T02:54:46;14.60;99.90
3300;DHT22;1662;49.310;8.134;2022-10-30T02:57:12;14.60;99.90
3300;DHT22;1662;49.310;8.134;2022-10-30T02:59:37;14.60;99.90
3300;DHT22;1662;49.310;8.134;2022-10-30T03:02:03;14.50;99.90
3300;DHT22;1662;49.310;8.134;2022-10-30T03:04:28;14.50;99.90
3300;DHT22;1662;49.310;8.134;2022-10-30T03:06:54;14.50;99.90
3300;DHT22;1662;49.310;8.134;2022-10-30T03:09:20;14.50;99.90
3300;DHT22;1662;49.310;8.134;2022-10-30T03:11:46;14.40;99.90
3300;DHT22;1662;49.310;8.134;2022-10-30T03:14:11;14.40;99.90
3300;DHT22;1662;49.310;8.134;2022-10-30T03:16:37;14.40;99.90
3300;DHT22;1662;49.310;8.134;2022-10-30T03:19:05;14.30;99.90
3300;DHT22;1662;49.310;8.134;2022-10-30T03:21:32;14.30;99.90
3300;DHT22;1662;49.310;8.134;2022-10-30T03:23:58;14.30;99.90
3300;DHT22;1662;49.310;8.134;2022-10-30T03:26:24;14.30;99.90
3300;DHT22;1662;49.310;8.134;2022-10-30T03:28:49;14.20;99.90
3300;DHT22;1662;49.310;8.134;2022-10-30T03:31:16;14.20;99.90
3300;DHT22;1662;49.310;8.134;2022-10-30T03:33:43;14.20;99.90
3300;DHT22;1662;49.310;8.134;2022-10-30T03:36:10;14.20;99.90
3300;DHT22;1662;49.310;8.134;2022-10-30T03:38:39;14.10;99.90
3300;DHT22;1662;49.310;8.134;2022-10-30T03:41:07;14.10;99.90
3300;DHT22;1662;49.310;8.134;2022-10-30T03:43:33;14.00;99.90
3300;DHT22;1662;49.310;8.134;2022-10-30T03:45:58;14.00;99.90
3300;DHT22;1662;49.310;8.134;2022-10-30T03:48:26;13.90;99.90
3300;DHT22;1662;49.310;8.134;2022-10-30T03:50:55;13.90;99.90
3300;DHT22;1662;49.310;8.134;2022-10-30T03:53:21;13.90;99.90
3300;DHT22;1662;49.310;8.134;2022-10-30T03:55:49;13.90;99.90
3300;DHT22;1662;49.310;8.134;2022-10-30T03:58:14;13.90;99.90
3300;DHT22;1662;49.310;8.134;2022-10-30T04:00:40;13.90;99.90
3300;DHT22;1662;49.310;8.134;2022-10-30T04:03:07;13.90;99.90
3300;DHT22;1662;49.310;8.134;2022-10-30T04:05:33;13.90;99.90
3300;DHT22;1662;49.310;8.134;2022-10-30T04:08:01;13.90;99.90
3300;DHT22;1662;49.310;8.134;2022-10-30T04:10:28;13.80;99.90
3300;DHT22;1662;49.310;8.134;2022-10-30T04:13:01;13.80;99.90
3300;DHT22;1662;49.310;8.134;2022-10-30T04:15:27;13.80;99.90
3300;DHT22;1662;49.310;8.134;2022-10-30T04:17:52;13.80;99.90
3300;DHT22;1662;49.310;8.134;2022-10-30T04:20:22;13.80;99.90
3300;DHT22;1662;49.310;8.134;2022-10-30T04:22:48;13.80;99.90
3300;DHT22;1662;49.310;8.134;2022-10-30T04:25:19;13.90;99.90
3300;DHT22;1662;49.310;8.134;2022-10-30T04:27:44;13.90;99.90
3300;DHT22;1662;49.310;8.134;2022-10-30T04:30:11;13.90;99.90
3300;DHT22;1662;49.310;8.134;2022-10-30T04:32:54;13.90;99.90
3300;DHT22;1662;49.310;8.134;2022-10-30T04:35:22;13.90;99.90
3300;DHT22;1662;49.310;8.134;2022-10-30T04:38:02;13.90;99.90
3300;DHT22;1662;49.310;8.134;2022-10-30T04:40:31;13.80;99.90
3300;DHT22;1662;49.310;8.134;2022-10-30T04:42:57;13.80;99.90
3300;DHT22;1662;49.310;8.134;2022-10-30T04:45:23;13.80;99.90
3300;DHT22;1662;49.310;8.134;2022-10-30T04:47:49;13.70;99.90
3300;DHT22;1662;49.310;8.134;2022-10-30T04:50:17;13.60;99.90
3300;DHT22;1662;49.310;8.134;2022-10-30T04:52:45;13.60;99.90
3300;DHT22;1662;49.310;8.134;2022-10-30T04:55:11;13.60;99.90
3300;DHT22;1662;49.310;8.134;2022-10-30T04:57:37;13.50;99.90
3300;DHT22;1662;49.310;8.134;2022-10-30T05:00:07;13.40;99.90
3300;DHT22;1662;49.310;8.134;2022-10-30T05:02:36;13.40;99.90
3300;DHT22;1662;49.310;8.134;2022-10-30T05:05:02;13.40;99.90
3300;DHT22;1662;49.310;8.134;2022-10-30T05:07:28;13.30;99.90
3300;DHT22;1662;49.310;8.134;2022-10-30T05:09:54;13.30;99.90
3300;DHT22;1662;49.310;8.134;2022-10-30T05:12:19;13.30;99.90
3300;DHT22;1662;49.310;8.134;2022-10-30T05:14:46;13.30;99.90
3300;DHT22;1662;49.310;8.134;2022-10-30T05:17:12;13.20;99.90
3300;DHT22;1662;49.310;8.134;2022-10-30T05:19:37;13.20;99.90
3300;DHT22;1662;49.310;8.134;2022-10-30T05:22:03;13.30;99.90
3300;DHT22;1662;49.310;8.134;2022-10-30T05:24:29;13.20;99.90
3300;DHT22;1662;49.310;8.134;2022-10-30T05:26:54;13.20;99.90
3300;DHT22;1662;49.310;8.134;2022-10-30T05:29:20;13.20;99.90
3300;DHT22;1662;49.310;8.134;2022-10-30T05:31:46;13.20;99.90
3300;DHT22;1662;49.310;8.134;2022-10-30T05:34:11;13.20;99.90
3300;DHT22;1662;49.310;8.134;2022-10-30T05:36:37;13.20;99.90
3300;DHT22;1662;49.310;8.134;2022-10-30T05:39:02;13.20;99.90
3300;DHT22;1662;49.310;8.134;2022-10-30T05:41:28;13.20;99.90
3300;DHT22;1662;49.310;8.134;2022-10-30T05:43:56;13.20;99.90
3300;DHT22;1662;49.310;8.134;2022-10-30T05:46:22;13.10;99.90
3300;DHT22;1662;49.310;8.134;2022-10-30T05:48:47;13.10;99.90
3300;DHT22;1662;49.310;8.134;2022-10-30T05:51:13;13.10;99.90
3300;DHT22;1662;49.310;8.134;2022-10-30T05:53:38;13.00;99.90
3300;DHT22;1662;49.310;8.134;2022-10-30T05:56:04;13.00;99.90
3300;DHT22;1662;49.310;8.134;2022-10-30T05:58:30;13.00;99.90
3300;DHT22;1662;49.310;8.134;2022-10-30T06:00:55;13.00;99.90
3300;DHT22;1662;49.310;8.134;2022-10-30T06:03:23;13.00;99.90
3300;DHT22;1662;49.310;8.134;2022-10-30T06:05:48;13.00;99.90
3300;DHT22;1662;49.310;8.134;2022-10-30T06:08:14;13.00;99.90
3300;DHT22;1662;49.310;8.134;2022-10-30T06:10:41;13.00;99.90
3300;DHT22;1662;49.310;8.134;2022-10-30T06:13:07;12.90;99.90
3300;DHT22;1662;49.310;8.134;2022-10-30T06:15:34;13.00;99.90
3300;DHT22;1662;49.310;8.134;2022-10-30T06:17:59;12.90;99.90
3300;DHT22;1662;49.310;8.134;2022-10-30T06:20:27;12.90;99.90
3300;DHT22;1662;49.310;8.134;2022-10-30T06:23:03;12.90;99.90
3300;DHT22;1662;49.310;8.134;2022-10-30T06:25:31;12.90;99.90
3300;DHT22;1662;49.310;8.134;2022-10-30T06:27:57;12.90;99.90
3300;DHT22;1662;49.310;8.134;2022-10-30T06:30:23;12.90;99.90
3300;DHT22;1662;49.310;8.134;2022-10-30T06:32:51;12.80;99.90
3300;DHT22;1662;49.310;8.134;2022-10-30T06:35:22;12.80;99.90
3300;DHT22;1662;49.310;8.134;2022-10-30T06:37:48;12.80;99.90
3300;DHT22;1662;49.310;8.134;2022-10-30T06:40:15;12.90;99.90
3300;DHT22;1662;49.310;8.134;2022-10-30T06:42:45;12.90;99.90
3300;DHT22;1662;49.310;8.134;2022-10-30T06:45:11;12.90;99.90
3300;DHT22;1662;49.310;8.134;2022-10-30T06:47:38;12.90;99.90
3300;DHT22;1662;49.310;8.134;2022-10-30T06:50:08;13.00;99.90
3300;DHT22;1662;49.310;8.134;2022-10-30T06:52:34;12.90;99.90
3300;DHT22;1662;49.310;8.134;2022-10-30T06:55:00;13.00;99.90
3300;DHT22;1662;49.310;8.134;2022-10-30T06:57:26;13.00;99.90
3300;DHT22;1662;49.310;8.134;2022-10-30T06:59:54;13.00;99.90
3300;DHT22;1662;49.310;8.134;2022-10-30T07:02:19;13.10;99.90
3300;DHT22;1662;49.310;8.134;2022-10-30T07:04:45;13.10;99.90
3300;DHT22;1662;49.310;8.134;2022-10-30T07:07:12;13.10;99.90
3300;DHT22;1662;49.310;8.134;2022-10-30T07:09:37;13.10;99.90
3300;DHT22;1662;49.310;8.134;2022-10-30T07:12:03;13.20;99.90
3300;DHT22;1662;49.310;8.134;2022-10-30T07:14:31;13.20;99.90
3300;DHT22;1662;49.310;8.134;2022-10-30T07:17:00;13.20;99.90
3300;DHT22;1662;49.310;8.134;2022-10-30T07:19:26;13.30;99.90
3300;DHT22;1662;49.310;8.134;2022-10-30T07:21:51;13.30;99.90
3300;DHT22;1662;49.310;8.134;2022-10-30T07:24:19;13.30;99.90
3300;DHT22;1662;49.310;8.134;2022-10-30T07:26:45;13.30;99.90
3300;DHT22;1662;49.310;8.134;2022-10-30T07:29:10;13.40;99.90
3300;DHT22;1662;49.310;8.134;2022-10-30T07:31:38;13.50;99.90
3300;DHT22;1662;49.310;8.134;2022-10-30T07:34:04;13.60;99.90
3300;DHT22;1662;49.310;8.134;2022-10-30T07:36:29;13.60;99.90
3300;DHT22;1662;49.310;8.134;2022-10-30T07:38:55;13.60;99.90
3300;DHT22;1662;49.310;8.134;2022-10-30T07:41:21;13.60;99.90
3300;DHT22;1662;49.310;8.134;2022-10-30T07:43:46;13.60;99.90
3300;DHT22;1662;49.310;8.134;2022-10-30T07:46:13;13.60;99.90
3300;DHT22;1662;49.310;8.134;2022-10-30T07:48:41;13.70;99.90
3300;DHT22;1662;49.310;8.134;2022-10-30T07:51:06;13.70;99.90
3300;DHT22;1662;49.310;8.134;2022-10-30T07:53:34;13.70;99.90
3300;DHT22;1662;49.310;8.134;2022-10-30T07:56:00;13.80;99.90
3300;DHT22;1662;49.310;8.134;2022-10-30T07:58:25;13.70;99.90
3300;DHT22;1662;49.310;8.134;2022-10-30T08:00:51;13.80;99.90
3300;DHT22;1662;49.310;8.134;2022-10-30T08:03:17;13.80;99.90
3300;DHT22;1662;49.310;8.134;2022-10-30T08:05:42;13.80;99.90
3300;DHT22;1662;49.310;8.134;2022-10-30T08:08:08;13.90;99.90
3300;DHT22;1662;49.310;8.134;2022-10-30T08:10:35;13.90;99.90
3300;DHT22;1662;49.310;8.134;2022-10-30T08:13:01;13.90;99.90
3300;DHT22;1662;49.310;8.134;2022-10-30T08:15:26;14.00;99.90
3300;DHT22;1662;49.310;8.134;2022-10-30T08:17:52;14.00;99.90
3300;DHT22;1662;49.310;8.134;2022-10-30T08:20:21;14.00;99.90
3300;DHT22;1662;49.310;8.134;2022-10-30T08:22:49;14.10;99.90
3300;DHT22;1662;49.310;8.134;2022-10-30T08:25:16;14.10;99.90
3300;DHT22;1662;49.310;8.134;2022-10-30T08:28:08;14.10;99.90
3300;DHT22;1662;49.310;8.134;2022-10-30T08:30:36;14.20;99.90
3300;DHT22;1662;49.310;8.134;2022-10-30T08:33:05;14.30;99.90
3300;DHT22;1662;49.310;8.134;2022-10-30T08:35:33;14.40;99.90
3300;DHT22;1662;49.310;8.134;2022-10-30T08:37:59;14.40;99.90
3300;DHT22;1662;49.310;8.134;2022-10-30T08:40:28;14.50;99.90
3300;DHT22;1662;49.310;8.134;2022-10-30T08:42:54;14.50;99.90
3300;DHT22;1662;49.310;8.134;2022-10-30T08:45:21;14.60;99.90
3300;DHT22;1662;49.310;8.134;2022-10-30T08:47:48;14.60;99.90
3300;DHT22;1662;49.310;8.134;2022-10-30T08:50:20;14.70;99.90
3300;DHT22;1662;49.310;8.134;2022-10-30T08:52:45;14.70;99.90
3300;DHT22;1662;49.310;8.134;2022-10-30T08:55:11;14.80;99.90
3300;DHT22;1662;49.310;8.134;2022-10-30T08:57:36;14.90;99.90
3300;DHT22;1662;49.310;8.134;2022-10-30T09:00:04;15.00;99.90
3300;DHT22;1662;49.310;8.134;2022-10-30T09:02:30;15.10;99.90
3300;DHT22;1662;49.310;8.134;2022-10-30T09:04:55;15.10;99.90
3300;DHT22;1662;49.310;8.134;2022-10-30T09:07:21;15.20;99.90
3300;DHT22;1662;49.310;8.134;2022-10-30T09:09:46;15.20;99.90
3300;DHT22;1662;49.310;8.134;2022-10-30T09:12:15;15.30;99.90
3300;DHT22;1662;49.310;8.134;2022-10-30T09:14:43;15.30;99.90
3300;DHT22;1662;49.310;8.134;2022-10-30T09:17:09;15.40;99.90
3300;DHT22;1662;49.310;8.134;2022-10-30T09:19:34;15.40;99.90
3300;DHT22;1662;49.310;8.134;2022-10-30T09:22:00;15.50;99.90
3300;DHT22;1662;49.310;8.134;2022-10-30T09:24:26;15.60;99.90
3300;DHT22;1662;49.310;8.134;2022-10-30T09:26:51;15.70;99.90
3300;DHT22;1662;49.310;8.134;2022-10-30T09:29:22;15.80;99.90
3300;DHT22;1662;49.310;8.134;2022-10-30T09:31:47;15.80;99.90
3300;DHT22;1662;49.310;8.134;2022-10-30T09:34:13;16.00;99.90
3300;DHT22;1662;49.310;8.134;2022-10-30T09:36:41;16.10;99.90
3300;DHT22;1662;49.310;8.134;2022-10-30T09:39:12;16.10;99.90
3300;DHT22;1662;49.310;8.134;2022-10-30T10:00:39;16.70;99.90
3300;DHT22;1662;49.310;8.134;2022-10-30T10:05:44;16.90;99.90
3300;DHT22;1662;49.310;8.134;2022-10-30T10:08:16;17.00;99.90
3300;DHT22;1662;49.310;8.134;2022-10-30T10:11:08;17.20;99.90
3300;DHT22;1662;49.310;8.134;2022-10-30T10:16:19;17.40;99.90
3300;DHT22;1662;49.310;8.134;2022-10-30T10:18:54;17.50;99.90
3300;DHT22;1662;49.310;8.134;2022-10-30T10:21:26;17.70;99.90
3300;DHT22;1662;49.310;8.134;2022-10-30T10:23:55;17.70;99.90
3300;DHT22;1662;49.310;8.134;2022-10-30T10:26:29;17.80;99.90
3300;DHT22;1662;49.310;8.134;2022-10-30T10:34:45;18.20;99.90
3300;DHT22;1662;49.310;8.134;2022-10-30T10:37:39;18.30;99.90
3300;DHT22;1662;49.310;8.134;2022-10-30T10:40:12;18.50;99.90
3300;DHT22;1662;49.310;8.134;2022-10-30T10:48:55;18.50;99.90
3300;DHT22;1662;49.310;8.134;2022-10-30T10:51:44;18.60;99.90
3300;DHT22;1662;49.310;8.134;2022-10-30T10:54:31;18.70;99.90
3300;DHT22;1662;49.310;8.134;2022-10-30T10:56:58;18.70;99.90
3300;DHT22;1662;49.310;8.134;2022-10-30T10:59:39;18.70;99.90
3300;DHT22;1662;49.310;8.134;2022-10-30T11:02:24;18.80;99.90
3300;DHT22;1662;49.310;8.134;2022-10-30T11:04:54;18.90;99.90
3300;DHT22;1662;49.310;8.134;2022-10-30T11:07:29;19.00;99.90
3300;DHT22;1662;49.310;8.134;2022-10-30T11:09:57;19.10;99.90
3300;DHT22;1662;49.310;8.134;2022-10-30T11:12:36;19.10;99.90
3300;DHT22;1662;49.310;8.134;2022-10-30T11:15:30;19.20;99.90
3300;DHT22;1662;49.310;8.134;2022-10-30T11:23:44;19.40;99.90
3300;DHT22;1662;49.310;8.134;2022-10-30T11:31:27;20.00;99.90
3300;DHT22;1662;49.310;8.134;2022-10-30T11:36:48;20.20;99.90
3300;DHT22;1662;49.310;8.134;2022-10-30T11:47:02;20.50;99.90
3300;DHT22;1662;49.310;8.134;2022-10-30T11:50:03;20.60;99.90
3300;DHT22;1662;49.310;8.134;2022-10-30T11:52:24;20.50;99.90
3300;DHT22;1662;49.310;8.134;2022-10-30T11:55:20;20.40;99.90
3300;DHT22;1662;49.310;8.134;2022-10-30T11:57:57;20.30;99.90
3300;DHT22;1662;49.310;8.134;2022-10-30T12:00:29;20.20;99.90
3300;DHT22;1662;49.310;8.134;2022-10-30T12:02:59;20.10;99.90
3300;DHT22;1662;49.310;8.134;2022-10-30T12:05:38;20.10;99.90
3300;DHT22;1662;49.310;8.134;2022-10-30T12:11:05;20.20;99.90
3300;DHT22;1662;49.310;8.134;2022-10-30T12:13:36;20.30;99.90
3300;DHT22;1662;49.310;8.134;2022-10-30T12:16:17;20.60;99.90
3300;DHT22;1662;49.310;8.134;2022-10-30T12:19:04;20.80;99.90
3300;DHT22;1662;49.310;8.134;2022-10-30T12:21:37;20.90;99.90
3300;DHT22;1662;49.310;8.134;2022-10-30T12:24:06;21.10;99.90
3300;DHT22;1662;49.310;8.134;2022-10-30T12:26:39;21.20;99.90
3300;DHT22;1662;49.310;8.134;2022-10-30T12:29:14;21.30;99.90
3300;DHT22;1662;49.310;8.134;2022-10-30T12:31:57;21.30;99.90
3300;DHT22;1662;49.310;8.134;2022-10-30T12:42:17;21.50;99.90
3300;DHT22;1662;49.310;8.134;2022-10-30T12:47:28;21.70;99.90
3300;DHT22;1662;49.310;8.134;2022-10-30T12:50:24;21.70;99.90
3300;DHT22;1662;49.310;8.134;2022-10-30T12:55:36;21.90;99.90
3300;DHT22;1662;49.310;8.134;2022-10-30T12:58:43;21.90;99.90
3300;DHT22;1662;49.310;8.134;2022-10-30T13:01:34;22.00;99.90
3300;DHT22;1662;49.310;8.134;2022-10-30T13:04:11;22.10;99.90
3300;DHT22;1662;49.310;8.134;2022-10-30T13:06:50;22.20;99.90
3300;DHT22;1662;49.310;8.134;2022-10-30T13:09:36;22.30;99.90
3300;DHT22;1662;49.310;8.134;2022-10-30T13:12:11;22.30;99.90
3300;DHT22;1662;49.310;8.134;2022-10-30T13:14:46;22.40;99.90
3300;DHT22;1662;49.310;8.134;2022-10-30T13:17:14;22.50;99.90
3300;DHT22;1662;49.310;8.134;2022-10-30T13:19:40;22.50;99.90
3300;DHT22;1662;49.310;8.134;2022-10-30T13:22:19;22.60;99.90
3300;DHT22;1662;49.310;8.134;2022-10-30T13:25:13;22.70;99.90
3300;DHT22;1662;49.310;8.134;2022-10-30T13:30:16;22.80;99.90
3300;DHT22;1662;49.310;8.134;2022-10-30T13:35:49;23.00;99.90
3300;DHT22;1662;49.310;8.134;2022-10-30T13:38:54;23.10;99.90
3300;DHT22;1662;49.310;8.134;2022-10-30T13:52:03;23.20;99.90
3300;DHT22;1662;49.310;8.134;2022-10-30T13:54:45;23.30;99.90
3300;DHT22;1662;49.310;8.134;2022-10-30T14:00:20;23.20;99.90
3300;DHT22;1662;49.310;8.134;2022-10-30T14:05:43;23.10;99.90
3300;DHT22;1662;49.310;8.134;2022-10-30T14:10:53;23.00;99.90
3300;DHT22;1662;49.310;8.134;2022-10-30T14:13:23;22.90;99.90
3300;DHT22;1662;49.310;8.134;2022-10-30T14:15:59;22.80;99.90
3300;DHT22;1662;49.310;8.134;2022-10-30T14:19:07;22.70;99.90
3300;DHT22;1662;49.310;8.134;2022-10-30T14:22:03;22.60;99.90
3300;DHT22;1662;49.310;8.134;2022-10-30T14:24:45;22.80;99.90
3300;DHT22;1662;49.310;8.134;2022-10-30T14:27:20;22.90;99.90
3300;DHT22;1662;49.310;8.134;2022-10-30T14:29:50;22.90;99.90
3300;DHT22;1662;49.310;8.134;2022-10-30T14:37:10;22.80;99.90
3300;DHT22;1662;49.310;8.134;2022-10-30T14:39:45;22.80;99.90
3300;DHT22;1662;49.310;8.134;2022-10-30T14:42:23;22.70;99.90
3300;DHT22;1662;49.310;8.134;2022-10-30T14:45:00;22.60;99.90
3300;DHT22;1662;49.310;8.134;2022-10-30T14:53:43;22.40;99.90
3300;DHT22;1662;49.310;8.134;2022-10-30T14:58:39;22.20;99.90
3300;DHT22;1662;49.310;8.134;2022-10-30T15:10:01;22.00;99.90
3300;DHT22;1662;49.310;8.134;2022-10-30T15:12:38;21.90;99.90
3300;DHT22;1662;49.310;8.134;2022-10-30T15:15:11;21.80;99.90
3300;DHT22;1662;49.310;8.134;2022-10-30T15:17:40;21.70;99.90
3300;DHT22;1662;49.310;8.134;2022-10-30T15:20:25;21.60;99.90
3300;DHT22;1662;49.310;8.134;2022-10-30T15:22:53;21.60;99.90
3300;DHT22;1662;49.310;8.134;2022-10-30T15:25:22;21.60;99.90
3300;DHT22;1662;49.310;8.134;2022-10-30T15:27:51;21.50;99.90
3300;DHT22;1662;49.310;8.134;2022-10-30T15:30:21;21.30;99.90
3300;DHT22;1662;49.310;8.134;2022-10-30T15:32:47;21.20;99.90
3300;DHT22;1662;49.310;8.134;2022-10-30T15:35:19;21.10;99.90
3300;DHT22;1662;49.310;8.134;2022-10-30T15:38:08;21.10;99.90
3300;DHT22;1662;49.310;8.134;2022-10-30T15:40:35;21.10;99.90
3300;DHT22;1662;49.310;8.134;2022-10-30T15:43:03;21.00;99.90
3300;DHT22;1662;49.310;8.134;2022-10-30T15:45:35;21.00;99.90
3300;DHT22;1662;49.310;8.134;2022-10-30T15:48:25;20.90;99.90
3300;DHT22;1662;49.310;8.134;2022-10-30T15:50:57;20.90;99.90
3300;DHT22;1662;49.310;8.134;2022-10-30T15:53:30;20.80;99.90
3300;DHT22;1662;49.310;8.134;2022-10-30T15:56:00;20.70;99.90
3300;DHT22;1662;49.310;8.134;2022-10-30T15:58:26;20.60;99.90
3300;DHT22;1662;49.310;8.134;2022-10-30T16:00:57;20.50;99.90
3300;DHT22;1662;49.310;8.134;2022-10-30T16:03:23;20.40;99.90
3300;DHT22;1662;49.310;8.134;2022-10-30T16:05:49;20.30;99.90
3300;DHT22;1662;49.310;8.134;2022-10-30T16:08:19;20.20;99.90
3300;DHT22;1662;49.310;8.134;2022-10-30T16:10:45;20.10;99.90
3300;DHT22;1662;49.310;8.134;2022-10-30T16:13:15;20.00;99.90
3300;DHT22;1662;49.310;8.134;2022-10-30T16:15:44;19.90;99.90
3300;DHT22;1662;49.310;8.134;2022-10-30T16:20:52;19.70;99.90
3300;DHT22;1662;49.310;8.134;2022-10-30T16:23:18;19.70;99.90
3300;DHT22;1662;49.310;8.134;2022-10-30T16:25:45;19.60;99.90
3300;DHT22;1662;49.310;8.134;2022-10-30T16:28:35;19.40;99.90
3300;DHT22;1662;49.310;8.134;2022-10-30T16:31:07;19.30;99.90
3300;DHT22;1662;49.310;8.134;2022-10-30T16:33:35;19.30;99.90
3300;DHT22;1662;49.310;8.134;2022-10-30T16:36:02;19.20;99.90
3300;DHT22;1662;49.310;8.134;2022-10-30T16:38:35;19.10;99.90
3300;DHT22;1662;49.310;8.134;2022-10-30T16:41:04;19.10;99.90
3300;DHT22;1662;49.310;8.134;2022-10-30T16:43:31;19.00;99.90
3300;DHT22;1662;49.310;8.134;2022-10-30T16:48:58;18.90;99.90
3300;DHT22;1662;49.310;8.134;2022-10-30T16:51:25;18.80;99.90
3300;DHT22;1662;49.310;8.134;2022-10-30T16:53:51;18.70;99.90
3300;DHT22;1662;49.310;8.134;2022-10-30T16:56:28;18.60;99.90
3300;DHT22;1662;49.310;8.134;2022-10-30T16:59:04;18.60;99.90
3300;DHT22;1662;49.310;8.134;2022-10-30T17:01:30;18.50;99.90
3300;DHT22;1662;49.310;8.134;2022-10-30T17:03:57;18.40;99.90
3300;DHT22;1662;49.310;8.134;2022-10-30T17:06:43;18.30;99.90
3300;DHT22;1662;49.310;8.134;2022-10-30T17:09:29;18.30;99.90
3300;DHT22;1662;49.310;8.134;2022-10-30T17:17:36;18.10;99.90
3300;DHT22;1662;49.310;8.134;2022-10-30T17:20:04;18.00;99.90
3300;DHT22;1662;49.310;8.134;2022-10-30T17:22:30;18.00;99.90
3300;DHT22;1662;49.310;8.134;2022-10-30T17:24:57;17.90;99.90
3300;DHT22;1662;49.310;8.134;2022-10-30T17:27:31;17.80;99.90
3300;DHT22;1662;49.310;8.134;2022-10-30T17:29:59;17.80;99.90
3300;DHT22;1662;49.310;8.134;2022-10-30T17:32:41;17.70;99.90
3300;DHT22;1662;49.310;8.134;2022-10-30T17:35:15;17.70;99.90
3300;DHT22;1662;49.310;8.134;2022-10-30T17:37:42;17.60;99.90
3300;DHT22;1662;49.310;8.134;2022-10-30T17:40:07;17.60;99.90
3300;DHT22;1662;49.310;8.134;2022-10-30T17:42:33;17.50;99.90
3300;DHT22;1662;49.310;8.134;2022-10-30T17:44:59;17.50;99.90
3300;DHT22;1662;49.310;8.134;2022-10-30T17:47:24;17.40;99.90
3300;DHT22;1662;49.310;8.134;2022-10-30T17:49:50;17.40;99.90
3300;DHT22;1662;49.310;8.134;2022-10-30T17:52:18;17.40;99.90
3300;DHT22;1662;49.310;8.134;2022-10-30T17:54:46;17.30;99.90
3300;DHT22;1662;49.310;8.134;2022-10-30T17:57:12;17.20;99.90
3300;DHT22;1662;49.310;8.134;2022-10-30T17:59:38;17.20;99.90
3300;DHT22;1662;49.310;8.134;2022-10-30T18:02:12;17.20;99.90
3300;DHT22;1662;49.310;8.134;2022-10-30T18:04:41;17.10;99.90
3300;DHT22;1662;49.310;8.134;2022-10-30T18:07:10;17.10;99.90
3300;DHT22;1662;49.310;8.134;2022-10-30T18:09:36;17.10;99.90
3300;DHT22;1662;49.310;8.134;2022-10-30T18:12:04;17.00;99.90
3300;DHT22;1662;49.310;8.134;2022-10-30T18:14:30;17.00;99.90
3300;DHT22;1662;49.310;8.134;2022-10-30T18:16:55;17.00;99.90
3300;DHT22;1662;49.310;8.134;2022-10-30T18:19:21;17.00;99.90
3300;DHT22;1662;49.310;8.134;2022-10-30T18:21:47;16.90;99.90
3300;DHT22;1662;49.310;8.134;2022-10-30T18:24:16;16.90;99.90
3300;DHT22;1662;49.310;8.134;2022-10-30T18:26:43;16.80;99.90
3300;DHT22;1662;49.310;8.134;2022-10-30T18:29:09;16.80;99.90
3300;DHT22;1662;49.310;8.134;2022-10-30T18:31:35;16.80;99.90
3300;DHT22;1662;49.310;8.134;2022-10-30T18:34:01;16.80;99.90
3300;DHT22;1662;49.310;8.134;2022-10-30T18:36:26;16.70;99.90
3300;DHT22;1662;49.310;8.134;2022-10-30T18:38:52;16.70;99.90
3300;DHT22;1662;49.310;8.134;2022-10-30T18:41:29;16.70;99.90
3300;DHT22;1662;49.310;8.134;2022-10-30T18:43:56;16.70;99.90
3300;DHT22;1662;49.310;8.134;2022-10-30T18:46:22;16.60;99.90
3300;DHT22;1662;49.310;8.134;2022-10-30T18:48:48;16.60;99.90
3300;DHT22;1662;49.310;8.134;2022-10-30T18:51:19;16.50;99.90
3300;DHT22;1662;49.310;8.134;2022-10-30T18:53:48;16.50;99.90